createdAt,value
2018-09-25T00:02:07.782Z,10.20
2018-09-25T00:04:41.486Z,10.27
2018-09-25T00:07:15.178Z,11.63
2018-09-25T00:09:49.310Z,12.67
2018-09-25T00:12:23.793Z,12.93
2018-09-25T00:14:58.224Z,14.23
2018-09-25T00:17:32.124Z,15.17
2018-09-25T00:20:06.521Z,15.03
2018-09-25T00:22:40.200Z,14.17
2018-09-25T00:25:15.359Z,13.43
2018-09-25T00:27:49.093Z,12.77
2018-09-25T00:30:23.603Z,15.80
2018-09-25T00:32:58.026Z,15.93
2018-09-25T00:35:33.251Z,15.13
2018-09-25T00:38:07.678Z,15.40
2018-09-25T00:40:41.669Z,16.03
2018-09-25T00:43:16.033Z,17.97
2018-09-25T00:45:49.650Z,14.47
2018-09-25T00:48:23.279Z,14.77
2018-09-25T00:50:56.949Z,15.00
2018-09-25T00:53:30.623Z,13.40
2018-09-25T00:56:04.402Z,14.53
2018-09-25T00:58:37.998Z,13.63
2018-09-25T01:01:11.602Z,15.23
2018-09-25T01:03:45.249Z,13.27
2018-09-25T01:06:18.848Z,14.57
2018-09-25T01:08:52.564Z,12.27
2018-09-25T01:11:26.174Z,12.93
2018-09-25T01:13:59.762Z,12.60
2018-09-25T01:16:33.394Z,11.70
2018-09-25T01:19:07.095Z,12.93
2018-09-25T01:21:41.430Z,12.20
2018-09-25T01:24:15.053Z,13.00
2018-09-25T01:26:48.584Z,12.80
2018-09-25T01:29:22.299Z,13.87
2018-09-25T01:31:56.636Z,13.20
2018-09-25T01:34:30.223Z,13.60
2018-09-25T01:37:04.019Z,14.40
2018-09-25T01:39:38.451Z,13.37
2018-09-25T01:42:12.038Z,13.03
2018-09-25T01:44:45.653Z,11.93
2018-09-25T01:47:19.186Z,14.40
2018-09-25T01:49:52.862Z,12.90
2018-09-25T01:52:26.497Z,14.00
2018-09-25T01:55:00.262Z,13.70
2018-09-25T01:57:33.856Z,13.90
2018-09-25T02:00:07.676Z,13.60
2018-09-25T02:02:41.320Z,14.40
2018-09-25T02:05:15.002Z,13.30
2018-09-25T02:07:48.718Z,13.00
2018-09-25T02:10:22.339Z,14.03
2018-09-25T02:12:55.974Z,13.97
2018-09-25T02:15:29.569Z,13.90
2018-09-25T02:18:03.343Z,13.37
2018-09-25T02:20:36.892Z,13.40
2018-09-25T02:23:10.606Z,14.03
2018-09-25T02:25:44.240Z,12.70
2018-09-25T02:28:17.836Z,13.23
2018-09-25T02:30:51.614Z,14.23
2018-09-25T02:33:25.299Z,14.23
2018-09-25T02:35:58.950Z,13.27
2018-09-25T02:38:32.722Z,12.80
2018-09-25T02:41:06.625Z,11.30
2018-09-25T02:43:40.282Z,12.80
2018-09-25T02:46:13.941Z,12.33
2018-09-25T02:48:48.341Z,12.90
2018-09-25T02:51:21.961Z,13.07
2018-09-25T02:53:55.537Z,13.30
2018-09-25T02:56:29.174Z,12.77
2018-09-25T02:59:02.763Z,13.77
2018-09-25T03:01:36.558Z,12.50
2018-09-25T03:04:10.966Z,13.07
2018-09-25T03:06:44.563Z,14.03
2018-09-25T03:09:18.593Z,13.50
2018-09-25T03:11:53.574Z,12.33
2018-09-25T03:14:27.192Z,13.37
2018-09-25T03:17:00.812Z,14.40
2018-09-25T03:19:34.381Z,14.63
2018-09-25T03:22:08.021Z,14.40
2018-09-25T03:24:42.320Z,13.97
2018-09-25T03:27:16.670Z,15.63
2018-09-25T03:29:51.115Z,14.07
2018-09-25T03:32:24.680Z,15.97
2018-09-25T03:34:58.423Z,15.83
2018-09-25T03:37:32.797Z,15.47
2018-09-25T03:40:06.437Z,15.50
2018-09-25T03:42:40.278Z,16.57
2018-09-25T03:45:13.848Z,17.00
2018-09-25T03:47:47.564Z,17.17
2018-09-25T03:50:21.298Z,15.43
2018-09-25T03:52:54.828Z,16.93
2018-09-25T03:55:28.449Z,14.63
2018-09-25T03:58:02.110Z,13.90
2018-09-25T04:00:36.459Z,13.73
2018-09-25T04:03:10.003Z,13.67
2018-09-25T04:05:43.715Z,12.67
2018-09-25T04:08:17.294Z,13.83
2018-09-25T04:10:50.960Z,12.07
2018-09-25T04:13:25.137Z,12.50
2018-09-25T04:15:59.495Z,13.17
2018-09-25T04:18:33.063Z,12.80
2018-09-25T04:21:06.678Z,13.37
2018-09-25T04:23:41.053Z,12.10
2018-09-25T04:26:14.762Z,11.00
2018-09-25T04:28:49.172Z,12.77
2018-09-25T04:31:23.558Z,10.77
2018-09-25T04:33:57.202Z,11.13
2018-09-25T04:36:31.601Z,11.53
2018-09-25T04:39:05.475Z,10.60
2018-09-25T04:41:40.636Z,9.97
2018-09-25T04:44:14.969Z,10.73
2018-09-25T04:46:48.587Z,10.50
2018-09-25T04:49:22.225Z,11.00
2018-09-25T04:51:57.154Z,10.50
2018-09-25T04:54:30.718Z,10.23
2018-09-25T04:57:04.373Z,10.70
2018-09-25T04:59:38.274Z,12.73
2018-09-25T05:02:12.171Z,11.13
2018-09-25T05:04:45.787Z,10.77
2018-09-25T05:07:19.385Z,13.60
2018-09-25T05:09:53.114Z,12.60
2018-09-25T05:12:26.692Z,12.80
2018-09-25T05:15:00.425Z,12.67
2018-09-25T05:17:34.350Z,11.57
2018-09-25T05:20:08.055Z,12.77
2018-09-25T05:22:41.787Z,14.10
2018-09-25T05:25:15.464Z,13.33
2018-09-25T05:27:49.024Z,13.50
2018-09-25T05:30:22.592Z,12.87
2018-09-25T05:32:56.274Z,13.37
2018-09-25T05:35:30.046Z,13.73
2018-09-25T05:38:04.425Z,13.27
2018-09-25T05:40:38.807Z,12.53
2018-09-25T05:43:12.625Z,14.00
2018-09-25T05:45:46.247Z,12.33
2018-09-25T05:48:19.935Z,13.23
2018-09-25T05:50:53.498Z,13.87
2018-09-25T05:53:27.099Z,14.63
2018-09-25T05:56:07.843Z,12.87
2018-09-25T05:58:41.419Z,13.90
2018-09-25T06:01:15.074Z,13.50
2018-09-25T06:03:48.675Z,14.03
2018-09-25T06:06:22.376Z,13.03
2018-09-25T06:08:56.017Z,14.23
2018-09-25T06:11:29.587Z,14.03
2018-09-25T06:14:03.247Z,14.50
2018-09-25T06:16:37.373Z,14.53
2018-09-25T06:19:11.191Z,15.00
2018-09-25T06:21:45.658Z,13.50
2018-09-25T06:24:19.310Z,15.63
2018-09-25T06:26:53.649Z,14.30
2018-09-25T06:29:27.996Z,10.20
2018-09-25T06:32:01.741Z,7.83
2018-09-25T06:34:35.490Z,7.37
2018-09-25T06:37:09.940Z,7.07
2018-09-25T06:39:43.834Z,6.37
2018-09-25T06:42:18.395Z,6.33
2018-09-25T06:44:52.787Z,5.93
2018-09-25T06:47:26.375Z,4.93
2018-09-25T06:50:00.718Z,5.30
2018-09-25T06:52:34.351Z,5.70
2018-09-25T06:55:07.971Z,4.70
2018-09-25T06:57:41.586Z,3.93
2018-09-25T07:00:15.219Z,3.20
2018-09-25T07:02:49.599Z,3.57
2018-09-25T07:05:23.773Z,2.00
2018-09-25T07:07:57.477Z,1.80
2018-09-25T07:10:31.204Z,2.17
2018-09-25T07:13:05.385Z,2.57
2018-09-25T07:15:39.014Z,1.60
2018-09-25T07:18:12.602Z,1.90
2018-09-25T07:20:46.415Z,2.40
2018-09-25T07:23:20.014Z,2.00
2018-09-25T07:25:53.591Z,1.90
2018-09-25T07:28:27.242Z,2.00
2018-09-25T07:31:00.934Z,1.67
2018-09-25T07:33:34.585Z,1.50
2018-09-25T07:36:08.310Z,2.30
2018-09-25T07:38:42.146Z,2.30
2018-09-25T07:41:15.762Z,1.67
2018-09-25T07:43:49.414Z,1.60
2018-09-25T07:46:23.302Z,2.00
2018-09-25T07:48:57.040Z,2.30
2018-09-25T07:51:30.579Z,1.50
2018-09-25T07:54:04.155Z,2.00
2018-09-25T07:56:37.858Z,1.90
2018-09-25T07:59:11.694Z,2.10
2018-09-25T08:01:46.080Z,1.53
2018-09-25T08:04:19.667Z,1.50
2018-09-25T08:06:53.247Z,1.70
2018-09-25T08:09:26.842Z,2.20
2018-09-25T08:12:00.477Z,1.13
2018-09-25T08:14:35.035Z,1.50
2018-09-25T08:17:09.544Z,1.10
2018-09-25T08:19:43.189Z,1.50
2018-09-25T08:22:16.830Z,1.10
2018-09-25T08:24:50.412Z,1.10
2018-09-25T08:27:23.924Z,2.00
2018-09-25T08:29:57.484Z,1.10
2018-09-25T08:32:32.075Z,1.00
2018-09-25T08:35:06.480Z,0.93
2018-09-25T08:37:39.984Z,0.60
2018-09-25T08:40:13.611Z,0.90
2018-09-25T08:42:47.239Z,1.17
2018-09-25T08:45:21.663Z,0.87
2018-09-25T08:47:55.344Z,0.90
2018-09-25T08:50:29.034Z,1.03
2018-09-25T08:53:03.350Z,0.70
2018-09-25T08:55:37.297Z,1.07
2018-09-25T08:58:11.334Z,0.80
2018-09-25T09:00:44.981Z,1.20
2018-09-25T09:03:18.604Z,1.80
2018-09-25T09:05:53.070Z,1.10
2018-09-25T09:08:26.686Z,0.97
2018-09-25T09:11:00.158Z,1.40
2018-09-25T09:13:33.727Z,1.00
2018-09-25T09:16:07.339Z,0.90
2018-09-25T09:18:40.832Z,0.97
2018-09-25T09:21:14.306Z,1.40
2018-09-25T09:23:47.806Z,1.70
2018-09-25T09:26:21.307Z,1.30
2018-09-25T09:28:55.074Z,1.43
2018-09-25T09:31:28.580Z,1.20
2018-09-25T09:34:02.215Z,1.47
2018-09-25T09:36:35.715Z,1.60
2018-09-25T09:39:09.918Z,1.53
2018-09-25T09:41:43.551Z,1.43
2018-09-25T09:44:16.903Z,1.40
2018-09-25T09:46:50.425Z,2.00
2018-09-25T09:49:23.887Z,2.00
2018-09-25T09:51:57.451Z,1.63
2018-09-25T09:54:31.059Z,1.70
2018-09-25T09:57:04.574Z,1.30
2018-09-25T09:59:38.075Z,1.30
2018-09-25T10:02:11.599Z,1.30
2018-09-25T10:04:45.088Z,1.70
2018-09-25T10:09:58.219Z,2.00
2018-09-25T10:12:31.811Z,1.07
2018-09-25T10:15:05.196Z,1.53
2018-09-25T10:17:39.764Z,1.07
2018-09-25T10:20:13.464Z,1.10
2018-09-25T10:22:47.206Z,0.90
2018-09-25T10:28:13.155Z,1.10
2018-09-25T10:30:46.747Z,1.00
2018-09-25T10:33:21.698Z,1.40
2018-09-25T10:35:55.477Z,1.20
2018-09-25T10:38:29.213Z,1.27
2018-09-25T10:41:03.778Z,1.00
2018-09-25T10:43:37.441Z,1.47
2018-09-25T10:46:11.135Z,1.40
2018-09-25T10:48:44.620Z,1.13
2018-09-25T10:51:18.247Z,1.10
2018-09-25T10:53:51.739Z,1.00
2018-09-25T10:56:25.232Z,1.00
2018-09-25T10:58:58.718Z,0.87
2018-09-25T11:01:36.399Z,0.70
2018-09-25T11:04:10.040Z,0.83
2018-09-25T11:06:43.543Z,0.77
2018-09-25T11:09:17.022Z,0.60
2018-09-25T11:11:50.515Z,0.50
2018-09-25T11:14:24.019Z,0.70
2018-09-25T11:16:57.540Z,0.80
2018-09-25T11:19:30.977Z,0.80
2018-09-25T11:22:04.447Z,1.00
2018-09-25T11:24:37.929Z,1.20
2018-09-25T11:27:11.446Z,1.23
2018-09-25T11:29:45.099Z,1.40
2018-09-25T11:32:18.597Z,1.33
2018-09-25T11:34:52.328Z,1.00
2018-09-25T11:37:25.795Z,1.00
2018-09-25T11:39:59.259Z,0.57
2018-09-25T11:42:32.890Z,0.73
2018-09-25T11:45:07.991Z,0.80
2018-09-25T11:47:42.355Z,0.80
2018-09-25T11:50:16.279Z,0.80
2018-09-25T11:52:49.947Z,1.43
2018-09-25T11:55:23.515Z,0.73
2018-09-25T11:57:59.351Z,0.63
2018-09-25T12:00:33.085Z,1.20
2018-09-25T12:03:06.753Z,0.77
2018-09-25T12:05:41.222Z,0.80
2018-09-25T12:08:15.473Z,1.40
2018-09-25T12:10:50.656Z,1.80
2018-09-25T12:13:24.307Z,1.07
2018-09-25T12:15:57.787Z,1.10
2018-09-25T12:18:31.352Z,0.70
2018-09-25T12:21:05.098Z,1.00
2018-09-25T12:23:38.672Z,0.73
2018-09-25T12:26:12.366Z,0.70
2018-09-25T12:28:46.734Z,0.93
2018-09-25T12:31:21.106Z,0.73
2018-09-25T12:34:00.424Z,0.83
2018-09-25T12:36:34.883Z,0.60
2018-09-25T12:39:08.733Z,1.10
2018-09-25T12:41:42.347Z,1.30
2018-09-25T12:44:16.770Z,0.90
2018-09-25T12:46:50.567Z,0.80
2018-09-25T12:49:24.144Z,0.80
2018-09-25T12:51:58.192Z,0.93
2018-09-25T12:54:31.804Z,1.33
2018-09-25T12:57:05.406Z,0.70
2018-09-25T12:59:38.972Z,1.10
2018-09-25T13:02:13.387Z,0.93
2018-09-25T13:04:46.967Z,1.17
2018-09-25T13:07:24.600Z,1.10
2018-09-25T13:09:58.152Z,1.43
2018-09-25T13:12:31.836Z,0.97
2018-09-25T13:15:05.447Z,0.70
2018-09-25T13:17:39.181Z,0.77
2018-09-25T13:20:12.759Z,0.90
2018-09-25T13:22:46.362Z,0.67
2018-09-25T13:25:20.163Z,0.80
2018-09-25T13:27:53.760Z,1.00
2018-09-25T13:30:27.376Z,0.90
2018-09-25T13:33:01.718Z,0.90
2018-09-25T13:35:35.379Z,0.73
2018-09-25T13:38:09.923Z,0.97
2018-09-25T13:40:43.529Z,2.00
2018-09-25T13:43:17.379Z,1.13
2018-09-25T13:45:51.240Z,7.20
2018-09-25T13:48:24.827Z,1.00
2018-09-25T13:50:58.471Z,1.00
2018-09-25T13:53:32.124Z,0.83
2018-09-25T13:56:06.854Z,1.13
2018-09-25T13:58:40.422Z,0.77
2018-09-25T14:01:14.281Z,0.80
2018-09-25T14:03:48.077Z,1.17
2018-09-25T14:06:21.841Z,1.00
2018-09-25T14:08:55.452Z,0.77
2018-09-25T14:11:28.998Z,0.93
2018-09-25T14:14:03.354Z,0.70
2018-09-25T14:16:37.498Z,1.10
2018-09-25T14:19:11.094Z,1.63
2018-09-25T14:21:44.877Z,0.97
2018-09-25T14:24:18.470Z,1.90
2018-09-25T14:26:52.810Z,1.27
2018-09-25T14:29:26.423Z,1.20
2018-09-25T14:32:00.138Z,0.90
2018-09-25T14:34:34.495Z,1.00
2018-09-25T14:37:08.196Z,0.93
2018-09-25T14:39:42.611Z,0.60
2018-09-25T14:42:17.028Z,0.80
2018-09-25T14:44:51.175Z,1.20
2018-09-25T14:47:24.864Z,0.77
2018-09-25T14:49:58.510Z,1.60
2018-09-25T14:52:32.165Z,0.83
2018-09-25T14:55:06.703Z,1.20
2018-09-25T14:57:40.323Z,0.80
2018-09-25T15:00:14.725Z,0.97
2018-09-25T15:02:48.329Z,0.80
2018-09-25T15:05:22.803Z,1.37
2018-09-25T15:07:56.662Z,0.90
2018-09-25T15:10:30.369Z,1.30
2018-09-25T15:13:04.914Z,1.50
2018-09-25T15:15:39.441Z,1.13
2018-09-25T15:18:13.238Z,1.10
2018-09-25T15:20:46.911Z,1.10
2018-09-25T15:23:20.779Z,0.80
2018-09-25T15:25:55.388Z,1.03
2018-09-25T15:28:28.983Z,0.93
2018-09-25T15:31:03.346Z,1.13
2018-09-25T15:33:36.969Z,0.97
2018-09-25T15:36:10.859Z,0.97
2018-09-25T15:38:44.526Z,0.97
2018-09-25T15:41:18.822Z,0.80
2018-09-25T15:43:52.693Z,0.83
2018-09-25T15:46:27.933Z,1.10
2018-09-25T15:49:02.041Z,0.80
2018-09-25T15:51:36.687Z,1.10
2018-09-25T15:54:10.579Z,1.10
2018-09-25T15:56:44.495Z,1.10
2018-09-25T15:59:19.097Z,0.83
2018-09-25T16:04:39.654Z,1.60
2018-09-25T16:07:13.663Z,0.87
2018-09-25T16:09:47.560Z,1.03
2018-09-25T16:12:22.219Z,1.57
2018-09-25T16:14:56.913Z,0.90
2018-09-25T16:17:31.749Z,1.30
2018-09-25T16:20:05.550Z,1.13
2018-09-25T16:22:39.216Z,1.17
2018-09-25T16:25:12.896Z,1.30
2018-09-25T16:27:46.556Z,0.90
2018-09-25T16:30:20.204Z,0.97
2018-09-25T16:32:53.976Z,1.27
2018-09-25T16:35:27.746Z,1.13
2018-09-25T16:38:01.441Z,1.10
2018-09-25T16:40:35.263Z,0.90
2018-09-25T16:43:08.951Z,1.03
2018-09-25T16:45:42.612Z,0.80
2018-09-25T16:48:16.249Z,1.03
2018-09-25T16:50:50.027Z,0.93
2018-09-25T16:53:23.683Z,1.10
2018-09-25T16:55:57.418Z,0.83
2018-09-25T16:58:31.228Z,0.90
2018-09-25T17:01:05.028Z,1.43
2018-09-25T17:03:38.827Z,1.23
2018-09-25T17:06:12.702Z,0.97
2018-09-25T17:08:47.362Z,0.97
2018-09-25T17:11:21.290Z,1.93
2018-09-25T17:13:55.139Z,1.60
2018-09-25T17:16:28.798Z,1.10
2018-09-25T17:19:02.383Z,1.03
2018-09-25T17:21:36.043Z,1.30
2018-09-25T17:24:09.695Z,1.10
2018-09-25T17:26:44.124Z,1.83
2018-09-25T17:29:18.717Z,1.20
2018-09-25T17:31:52.330Z,1.60
2018-09-25T17:34:26.013Z,1.13
2018-09-25T17:37:00.408Z,1.50
2018-09-25T17:39:34.061Z,1.77
2018-09-25T17:42:07.665Z,1.80
2018-09-25T17:44:41.491Z,1.50
2018-09-25T17:47:15.145Z,1.87
2018-09-25T17:49:49.452Z,2.20
2018-09-25T17:52:23.075Z,2.07
2018-09-25T17:54:56.766Z,1.77
2018-09-25T17:57:30.427Z,2.30
2018-09-25T18:00:04.080Z,1.90
2018-09-25T18:02:37.823Z,2.07
2018-09-25T18:05:11.472Z,1.70
2018-09-25T18:07:45.260Z,1.57
2018-09-25T18:10:18.935Z,2.20
2018-09-25T18:12:52.634Z,1.70
2018-09-25T18:15:26.226Z,1.80
2018-09-25T18:17:59.904Z,2.33
2018-09-25T18:20:34.663Z,2.80
2018-09-25T18:23:08.341Z,2.00
2018-09-25T18:25:42.039Z,3.67
2018-09-25T18:28:16.642Z,3.17
2018-09-25T18:30:50.992Z,3.80
2018-09-25T18:33:24.847Z,2.70
2018-09-25T18:35:58.371Z,2.30
2018-09-25T18:38:38.552Z,1.67
2018-09-25T18:41:12.895Z,1.73
2018-09-25T18:43:47.307Z,2.20
2018-09-25T18:46:21.445Z,2.30
2018-09-25T18:48:55.148Z,57.97
2018-09-25T18:51:28.922Z,17.23
2018-09-25T18:54:02.681Z,9.87
2018-09-25T18:56:37.081Z,3.70
2018-09-25T18:59:14.471Z,2.60
2018-09-25T19:04:33.015Z,1.63
2018-09-25T19:07:07.288Z,1.90
2018-09-25T19:09:43.133Z,1.83
2018-09-25T19:12:16.896Z,1.80
2018-09-25T19:14:50.664Z,1.77
2018-09-25T19:17:24.483Z,2.03
2018-09-25T19:19:59.099Z,1.90
2018-09-25T19:22:32.722Z,2.40
2018-09-25T19:25:06.620Z,2.20
2018-09-25T19:27:41.354Z,1.60
2018-09-25T19:33:11.850Z,1.63
2018-09-25T19:35:45.717Z,1.90
2018-09-25T19:38:20.176Z,1.90
2018-09-25T19:40:53.959Z,2.30
2018-09-25T19:43:27.601Z,2.07
2018-09-25T19:46:01.232Z,2.60
2018-09-25T19:48:35.187Z,2.37
2018-09-25T19:51:08.808Z,2.60
2018-09-25T19:53:42.573Z,2.57
2018-09-25T19:56:16.302Z,3.20
2018-09-25T19:58:50.593Z,2.60
2018-09-25T20:01:24.264Z,2.73
2018-09-25T20:03:58.017Z,3.03
2018-09-25T20:06:31.669Z,3.43
2018-09-25T20:09:05.466Z,3.00
2018-09-25T20:11:39.382Z,3.47
2018-09-25T20:14:13.182Z,1.73
2018-09-25T20:16:47.422Z,3.00
2018-09-25T20:19:21.314Z,2.67
2018-09-25T20:21:55.107Z,2.30
2018-09-25T20:24:28.740Z,2.27
2018-09-25T20:27:02.779Z,2.40
2018-09-25T20:29:37.445Z,2.10
2018-09-25T20:32:11.343Z,2.10
2018-09-25T20:34:45.063Z,2.70
2018-09-25T20:37:19.214Z,2.13
2018-09-25T20:39:53.490Z,2.13
2018-09-25T20:42:27.161Z,2.10
2018-09-25T20:45:00.803Z,2.07
2018-09-25T20:47:34.439Z,2.37
2018-09-25T20:50:08.083Z,1.87
2018-09-25T20:52:41.703Z,1.73
2018-09-25T20:55:16.238Z,1.83
2018-09-25T20:57:49.888Z,1.90
2018-09-25T21:00:23.551Z,1.80
2018-09-25T21:02:57.225Z,2.00
2018-09-25T21:05:31.112Z,2.00
2018-09-25T21:08:04.695Z,1.70
2018-09-25T21:10:38.401Z,2.07
2018-09-25T21:13:12.257Z,1.70
2018-09-25T21:15:46.775Z,1.70
2018-09-25T21:18:22.111Z,2.20
2018-09-25T21:20:56.604Z,1.73
2018-09-25T21:23:30.958Z,1.90
2018-09-25T21:26:04.711Z,1.90
2018-09-25T21:28:38.386Z,1.70
2018-09-25T21:31:12.740Z,1.83
2018-09-25T21:33:46.515Z,2.00
2018-09-25T21:36:20.288Z,1.60
2018-09-25T21:38:54.741Z,1.60
2018-09-25T21:41:28.317Z,2.03
2018-09-25T21:44:01.992Z,1.50
2018-09-25T21:46:35.679Z,1.87
2018-09-25T21:49:10.433Z,1.53
2018-09-25T21:51:44.852Z,1.70
2018-09-25T21:54:18.367Z,1.93
2018-09-25T21:56:52.959Z,1.47
2018-09-25T21:59:26.496Z,1.70
2018-09-25T22:02:00.398Z,1.90
2018-09-25T22:04:34.822Z,1.70
2018-09-25T22:07:09.271Z,1.80
2018-09-25T22:09:42.932Z,1.60
2018-09-25T22:12:17.492Z,1.20
2018-09-25T22:14:51.855Z,1.63
2018-09-25T22:17:25.458Z,1.70
2018-09-25T22:19:59.147Z,1.73
2018-09-25T22:22:33.477Z,1.87
2018-09-25T22:25:07.858Z,1.47
2018-09-25T22:27:41.422Z,2.17
2018-09-25T22:30:15.090Z,1.50
2018-09-25T22:32:48.901Z,2.10
2018-09-25T22:35:22.515Z,1.70
2018-09-25T22:37:56.099Z,1.67
2018-09-25T22:40:29.774Z,2.10
2018-09-25T22:43:03.563Z,2.00
2018-09-25T22:45:37.620Z,1.80
2018-09-25T22:48:11.504Z,1.33
2018-09-25T22:50:45.138Z,2.03
2018-09-25T22:53:18.881Z,2.10
2018-09-25T22:55:53.395Z,1.70
2018-09-25T22:58:27.187Z,1.80
2018-09-25T23:01:00.846Z,1.40
2018-09-25T23:03:34.764Z,1.63
2018-09-25T23:06:08.423Z,1.70
2018-09-25T23:08:42.052Z,2.50
2018-09-25T23:11:15.775Z,2.13
2018-09-25T23:13:49.513Z,2.17
2018-09-25T23:16:23.152Z,2.90
2018-09-25T23:18:56.757Z,1.70
2018-09-25T23:21:31.240Z,1.93
2018-09-25T23:24:04.979Z,2.10
2018-09-25T23:26:38.707Z,1.87
2018-09-25T23:29:12.471Z,2.73
2018-09-25T23:31:46.263Z,1.60
2018-09-25T23:34:20.183Z,1.47
2018-09-25T23:36:54.559Z,2.00
2018-09-25T23:39:28.256Z,1.77
2018-09-25T23:42:01.227Z,1.50
2018-09-25T23:46:42.655Z,1.63
2018-09-25T23:49:19.421Z,1.70
2018-09-25T23:51:52.823Z,1.70
2018-09-25T23:54:29.713Z,1.93
2018-09-25T23:57:05.514Z,2.13
2018-09-25T23:59:38.432Z,2.20
